sensor_id;sensor_type;location;lat;lon;timestamp;pressure;altitude;pressure_sealevel;temperature;humidity
18985;BME280;9626;52.552;13.436;2022-10-31T00:01:33;101234.94;;;12.85;100.00
18985;BME280;9626;52.552;13.436;2022-10-31T00:03:59;101228.97;;;12.75;100.00
18985;BME280;9626;52.552;13.436;2022-10-31T00:06:27;101232.59;;;12.71;100.00
18985;BME280;9626;52.552;13.436;2022-10-31T00:08:56;101229.94;;;12.71;100.00
18985;BME280;9626;52.552;13.436;2022-10-31T00:11:22;101231.63;;;12.75;100.00
18985;BME280;9626;52.552;13.436;2022-10-31T00:13:48;101230.03;;;12.65;100.00
18985;BME280;9626;52.552;13.436;2022-10-31T00:16:17;101229.28;;;12.60;100.00
18985;BME280;9626;52.552;13.436;2022-10-31T00:18:43;101235.56;;;12.54;100.00
18985;BME280;9626;52.552;13.436;2022-10-31T00:21:08;101237.38;;;12.52;100.00
18985;BME280;9626;52.552;13.436;2022-10-31T00:23:34;101242.59;;;12.57;100.00
18985;BME280;9626;52.552;13.436;2022-10-31T00:26:01;101241.63;;;12.61;100.00
18985;BME280;9626;52.552;13.436;2022-10-31T00:28:27;101245.28;;;12.55;100.00
18985;BME280;9626;52.552;13.436;2022-10-31T00:30:53;101242.53;;;12.61;100.00
18985;BME280;9626;52.552;13.436;2022-10-31T00:33:18;101258.53;;;12.57;100.00
18985;BME280;9626;52.552;13.436;2022-10-31T00:35:49;101248.72;;;12.60;100.00
18985;BME280;9626;52.552;13.436;2022-10-31T00:38:16;101252.22;;;12.64;100.00
18985;BME280;9626;52.552;13.436;2022-10-31T00:40:41;101259.22;;;12.68;100.00
18985;BME280;9626;52.552;13.436;2022-10-31T00:43:06;101253.13;;;12.63;100.00
18985;BME280;9626;52.552;13.436;2022-10-31T00:45:32;101254.09;;;12.59;100.00
18985;BME280;9626;52.552;13.436;2022-10-31T00:47:57;101248.69;;;12.62;100.00
18985;BME280;9626;52.552;13.436;2022-10-31T00:50:23;101251.31;;;12.63;100.00
18985;BME280;9626;52.552;13.436;2022-10-31T00:52:48;101263.81;;;12.58;100.00
18985;BME280;9626;52.552;13.436;2022-10-31T00:55:14;101264.81;;;12.52;100.00
18985;BME280;9626;52.552;13.436;2022-10-31T00:57:39;101264.78;;;12.54;100.00
18985;BME280;9626;52.552;13.436;2022-10-31T01:00:05;101264.03;;;12.46;100.00
18985;BME280;9626;52.552;13.436;2022-10-31T01:02:31;101268.56;;;12.42;100.00
18985;BME280;9626;52.552;13.436;2022-10-31T01:04:57;101267.66;;;12.42;100.00
18985;BME280;9626;52.552;13.436;2022-10-31T01:07:22;101270.25;;;12.46;100.00
18985;BME280;9626;52.552;13.436;2022-10-31T01:09:48;101271.06;;;12.48;100.00
18985;BME280;9626;52.552;13.436;2022-10-31T01:12:13;101279.03;;;12.48;100.00
18985;BME280;9626;52.552;13.436;2022-10-31T01:14:43;101272.84;;;12.49;100.00
18985;BME280;9626;52.552;13.436;2022-10-31T01:17:10;101277.25;;;12.50;100.00
18985;BME280;9626;52.552;13.436;2022-10-31T01:19:36;101284.28;;;12.51;100.00
18985;BME280;9626;52.552;13.436;2022-10-31T01:22:02;101284.31;;;12.50;100.00
18985;BME280;9626;52.552;13.436;2022-10-31T01:24:28;101283.38;;;12.56;100.00
18985;BME280;9626;52.552;13.436;2022-10-31T01:26:53;101289.44;;;12.61;100.00
18985;BME280;9626;52.552;13.436;2022-10-31T01:29:19;101283.31;;;12.59;100.00
18985;BME280;9626;52.552;13.436;2022-10-31T01:31:44;101279.81;;;12.55;100.00
18985;BME280;9626;52.552;13.436;2022-10-31T01:34:14;101282.44;;;12.57;100.00
18985;BME280;9626;52.552;13.436;2022-10-31T01:36:40;101275.44;;;12.52;100.00
18985;BME280;9626;52.552;13.436;2022-10-31T01:39:11;101286.16;;;12.48;100.00
18985;BME280;9626;52.552;13.436;2022-10-31T01:41:39;101278.25;;;12.43;100.00
18985;BME280;9626;52.552;13.436;2022-10-31T01:46:46;101282.91;;;12.30;100.00
18985;BME280;9626;52.552;13.436;2022-10-31T01:49:17;101296.28;;;12.26;100.00
18985;BME280;9626;52.552;13.436;2022-10-31T01:51:56;101281.25;;;12.25;100.00
18985;BME280;9626;52.552;13.436;2022-10-31T01:54:26;101281.13;;;12.31;100.00
18985;BME280;9626;52.552;13.436;2022-10-31T01:56:56;101277.69;;;12.26;100.00
18985;BME280;9626;52.552;13.436;2022-10-31T01:59:25;101291.94;;;12.18;100.00
18985;BME280;9626;52.552;13.436;2022-10-31T02:01:52;101298.88;;;12.29;100.00
18985;BME280;9626;52.552;13.436;2022-10-31T02:04:19;101290.97;;;12.26;100.00
18985;BME280;9626;52.552;13.436;2022-10-31T02:06:54;101295.41;;;12.24;100.00
18985;BME280;9626;52.552;13.436;2022-10-31T02:09:22;101297.13;;;12.28;100.00
18985;BME280;9626;52.552;13.436;2022-10-31T02:11:52;101295.41;;;12.24;100.00
18985;BME280;9626;52.552;13.436;2022-10-31T02:14:22;101298.16;;;12.19;100.00
18985;BME280;9626;52.552;13.436;2022-10-31T02:16:47;101299.91;;;12.18;100.00
18985;BME280;9626;52.552;13.436;2022-10-31T02:19:18;101297.25;;;12.18;100.00
18985;BME280;9626;52.552;13.436;2022-10-31T02:21:58;101291.94;;;12.18;100.00
18985;BME280;9626;52.552;13.436;2022-10-31T02:24:52;101296.41;;;12.18;100.00
18985;BME280;9626;52.552;13.436;2022-10-31T02:27:46;101290.00;;;12.28;100.00
18985;BME280;9626;52.552;13.436;2022-10-31T02:30:24;101291.13;;;12.16;100.00
18985;BME280;9626;52.552;13.436;2022-10-31T02:33:30;101289.38;;;12.14;100.00
18985;BME280;9626;52.552;13.436;2022-10-31T02:36:30;101281.41;;;12.15;100.00
18985;BME280;9626;52.552;13.436;2022-10-31T02:41:46;101286.75;;;12.12;100.00
18985;BME280;9626;52.552;13.436;2022-10-31T02:44:24;101286.84;;;12.06;100.00
18985;BME280;9626;52.552;13.436;2022-10-31T02:47:01;101288.75;;;11.98;100.00
18985;BME280;9626;52.552;13.436;2022-10-31T02:52:25;101290.50;;;11.99;100.00
18985;BME280;9626;52.552;13.436;2022-10-31T02:54:51;101282.63;;;11.96;100.00
18985;BME280;9626;52.552;13.436;2022-10-31T02:57:22;101295.75;;;12.02;100.00
18985;BME280;9626;52.552;13.436;2022-10-31T02:59:54;101298.38;;;12.05;100.00
18985;BME280;9626;52.552;13.436;2022-10-31T03:06:44;101298.41;;;12.02;100.00
18985;BME280;9626;52.552;13.436;2022-10-31T03:11:44;101305.59;;;12.48;100.00
18985;BME280;9626;52.552;13.436;2022-10-31T03:14:21;101309.06;;;12.54;100.00
18985;BME280;9626;52.552;13.436;2022-10-31T03:16:50;101309.84;;;12.60;100.00
18985;BME280;9626;52.552;13.436;2022-10-31T03:19:26;101309.06;;;12.54;100.00
18985;BME280;9626;52.552;13.436;2022-10-31T03:22:01;101308.19;;;12.53;100.00
18985;BME280;9626;52.552;13.436;2022-10-31T03:24:34;101318.13;;;12.42;100.00
18985;BME280;9626;52.552;13.436;2022-10-31T03:27:01;101322.44;;;12.49;100.00
18985;BME280;9626;52.552;13.436;2022-10-31T03:29:33;101324.81;;;12.64;100.00
18985;BME280;9626;52.552;13.436;2022-10-31T03:32:24;101336.06;;;12.79;100.00
18985;BME280;9626;52.552;13.436;2022-10-31T03:34:55;101329.88;;;12.78;100.00
18985;BME280;9626;52.552;13.436;2022-10-31T03:37:25;101328.00;;;12.83;100.00
18985;BME280;9626;52.552;13.436;2022-10-31T03:39:54;101333.19;;;12.90;100.00
18985;BME280;9626;52.552;13.436;2022-10-31T03:42:25;101335.84;;;12.91;100.00
18985;BME280;9626;52.552;13.436;2022-10-31T03:44:58;101342.94;;;12.89;100.00
18985;BME280;9626;52.552;13.436;2022-10-31T03:47:24;101342.94;;;12.89;100.00
18985;BME280;9626;52.552;13.436;2022-10-31T03:49:50;101344.63;;;12.95;100.00
18985;BME280;9626;52.552;13.436;2022-10-31T03:52:24;101341.03;;;12.97;100.00
18985;BME280;9626;52.552;13.436;2022-10-31T03:54:55;101349.00;;;12.97;100.00
18985;BME280;9626;52.552;13.436;2022-10-31T03:57:27;101354.28;;;12.99;100.00
18985;BME280;9626;52.552;13.436;2022-10-31T04:00:08;101343.63;;;13.02;100.00
18985;BME280;9626;52.552;13.436;2022-10-31T04:03:06;101346.31;;;12.99;100.00
18985;BME280;9626;52.552;13.436;2022-10-31T04:05:33;101348.94;;;13.00;100.00
18985;BME280;9626;52.552;13.436;2022-10-31T04:08:01;101348.94;;;13.02;100.00
18985;BME280;9626;52.552;13.436;2022-10-31T04:10:28;101339.06;;;13.07;100.00
18985;BME280;9626;52.552;13.436;2022-10-31T04:13:17;101353.25;;;13.08;100.00
18985;BME280;9626;52.552;13.436;2022-10-31T04:15:46;101358.63;;;13.03;100.00
18985;BME280;9626;52.552;13.436;2022-10-31T04:18:13;101348.94;;;13.02;100.00
18985;BME280;9626;52.552;13.436;2022-10-31T04:20:40;101357.81;;;13.01;100.00
18985;BME280;9626;52.552;13.436;2022-10-31T04:23:16;101360.56;;;12.95;100.00
18985;BME280;9626;52.552;13.436;2022-10-31T04:25:43;101365.06;;;12.90;100.00
18985;BME280;9626;52.552;13.436;2022-10-31T04:28:08;101368.66;;;12.89;100.00
18985;BME280;9626;52.552;13.436;2022-10-31T04:30:34;101363.22;;;12.95;100.00
18985;BME280;9626;52.552;13.436;2022-10-31T04:32:59;101365.00;;;12.94;100.00
18985;BME280;9626;52.552;13.436;2022-10-31T04:35:25;101365.06;;;12.90;100.00
18985;BME280;9626;52.552;13.436;2022-10-31T04:37:50;101364.31;;;12.84;100.00
18985;BME280;9626;52.552;13.436;2022-10-31T04:40:16;101362.63;;;12.80;100.00
18985;BME280;9626;52.552;13.436;2022-10-31T04:42:41;101368.03;;;12.74;100.00
18985;BME280;9626;52.552;13.436;2022-10-31T04:45:07;101374.06;;;12.82;100.00
18985;BME280;9626;52.552;13.436;2022-10-31T04:47:33;101375.94;;;12.77;100.00
18985;BME280;9626;52.552;13.436;2022-10-31T04:49:59;101375.03;;;12.78;100.00
18985;BME280;9626;52.552;13.436;2022-10-31T04:52:24;101376.97;;;12.70;100.00
18985;BME280;9626;52.552;13.436;2022-10-31T04:54:50;101380.47;;;12.71;100.00
18985;BME280;9626;52.552;13.436;2022-10-31T04:57:15;101374.44;;;12.64;100.00
18985;BME280;9626;52.552;13.436;2022-10-31T04:59:41;101377.91;;;12.66;100.00
18985;BME280;9626;52.552;13.436;2022-10-31T05:02:06;101373.38;;;12.73;100.00
18985;BME280;9626;52.552;13.436;2022-10-31T05:04:32;101371.72;;;12.67;100.00
18985;BME280;9626;52.552;13.436;2022-10-31T05:06:57;101374.25;;;12.73;100.00
18985;BME280;9626;52.552;13.436;2022-10-31T05:09:23;101375.25;;;12.66;100.00
18985;BME280;9626;52.552;13.436;2022-10-31T05:11:48;101377.00;;;12.68;100.00
18985;BME280;9626;52.552;13.436;2022-10-31T05:14:14;101376.13;;;12.68;100.00
18985;BME280;9626;52.552;13.436;2022-10-31T05:16:39;101380.59;;;12.64;100.00
18985;BME280;9626;52.552;13.436;2022-10-31T05:19:05;101372.56;;;12.67;100.00
18985;BME280;9626;52.552;13.436;2022-10-31T05:21:30;101380.50;;;12.69;100.00
18985;BME280;9626;52.552;13.436;2022-10-31T05:23:56;101384.13;;;12.65;100.00
18985;BME280;9626;52.552;13.436;2022-10-31T05:26:21;101388.59;;;12.63;100.00
18985;BME280;9626;52.552;13.436;2022-10-31T05:28:47;101385.13;;;12.59;100.00
18985;BME280;9626;52.552;13.436;2022-10-31T05:31:12;101386.97;;;12.56;100.00
18985;BME280;9626;52.552;13.436;2022-10-31T05:33:38;101392.16;;;12.62;100.00
18985;BME280;9626;52.552;13.436;2022-10-31T05:36:03;101393.03;;;12.62;100.00
18985;BME280;9626;52.552;13.436;2022-10-31T05:38:29;101387.81;;;12.58;100.00
18985;BME280;9626;52.552;13.436;2022-10-31T05:40:55;101397.63;;;12.52;100.00
18985;BME280;9626;52.552;13.436;2022-10-31T05:43:27;101397.75;;;12.45;100.00
18985;BME280;9626;52.552;13.436;2022-10-31T05:45:53;101397.72;;;12.48;100.00
18985;BME280;9626;52.552;13.436;2022-10-31T05:48:19;101399.47;;;12.49;100.00
18985;BME280;9626;52.552;13.436;2022-10-31T05:50:44;101404.78;;;12.47;100.00
18985;BME280;9626;52.552;13.436;2022-10-31T05:53:10;101403.13;;;12.40;100.00
18985;BME280;9626;52.552;13.436;2022-10-31T05:55:35;101399.59;;;12.40;100.00
18985;BME280;9626;52.552;13.436;2022-10-31T05:58:01;101401.47;;;12.34;100.00
18985;BME280;9626;52.552;13.436;2022-10-31T06:00:27;101397.00;;;12.35;100.00
18985;BME280;9626;52.552;13.436;2022-10-31T06:03:00;101409.34;;;12.41;100.00
18985;BME280;9626;52.552;13.436;2022-10-31T06:05:26;101402.25;;;12.41;100.00
18985;BME280;9626;52.552;13.436;2022-10-31T06:07:52;101403.13;;;12.40;100.00
18985;BME280;9626;52.552;13.436;2022-10-31T06:10:17;101412.88;;;12.40;100.00
18985;BME280;9626;52.552;13.436;2022-10-31T06:12:44;101409.31;;;12.42;100.00
18985;BME280;9626;52.552;13.436;2022-10-31T06:15:10;101414.56;;;12.45;100.00
18985;BME280;9626;52.552;13.436;2022-10-31T06:17:36;101415.47;;;12.44;100.00
18985;BME280;9626;52.552;13.436;2022-10-31T06:20:03;101419.03;;;12.42;100.00
18985;BME280;9626;52.552;13.436;2022-10-31T06:22:28;101413.63;;;12.49;100.00
18985;BME280;9626;52.552;13.436;2022-10-31T06:24:54;101423.38;;;12.49;100.00
18985;BME280;9626;52.552;13.436;2022-10-31T06:27:20;101422.38;;;12.55;100.00
18985;BME280;9626;52.552;13.436;2022-10-31T06:29:46;101424.94;;;12.61;100.00
18985;BME280;9626;52.552;13.436;2022-10-31T06:32:12;101423.94;;;12.68;100.00
18985;BME280;9626;52.552;13.436;2022-10-31T06:34:39;101430.06;;;12.72;100.00
18985;BME280;9626;52.552;13.436;2022-10-31T06:37:06;101418.50;;;12.74;100.00
18985;BME280;9626;52.552;13.436;2022-10-31T06:39:32;101427.28;;;12.79;100.00
18985;BME280;9626;52.552;13.436;2022-10-31T06:41:58;101430.00;;;12.76;100.00
18985;BME280;9626;52.552;13.436;2022-10-31T06:44:23;101433.47;;;12.80;100.00
18985;BME280;9626;52.552;13.436;2022-10-31T06:46:49;101432.59;;;12.79;100.00
18985;BME280;9626;52.552;13.436;2022-10-31T06:49:14;101442.25;;;12.85;100.00
18985;BME280;9626;52.552;13.436;2022-10-31T06:51:40;101441.28;;;12.89;100.00
18985;BME280;9626;52.552;13.436;2022-10-31T06:54:05;101443.03;;;12.92;100.00
18985;BME280;9626;52.552;13.436;2022-10-31T06:56:31;101447.50;;;12.88;100.00
18985;BME280;9626;52.552;13.436;2022-10-31T06:58:56;101450.25;;;12.83;100.00
18985;BME280;9626;52.552;13.436;2022-10-31T07:01:22;101447.50;;;12.88;100.00
18985;BME280;9626;52.552;13.436;2022-10-31T07:03:47;101459.81;;;12.94;100.00
18985;BME280;9626;52.552;13.436;2022-10-31T07:06:13;101467.59;;;13.06;100.00
18985;BME280;9626;52.552;13.436;2022-10-31T07:08:38;101463.09;;;13.10;100.00
18985;BME280;9626;52.552;13.436;2022-10-31T07:11:04;101466.50;;;13.16;100.00
18985;BME280;9626;52.552;13.436;2022-10-31T07:13:29;101466.34;;;13.26;100.00
18985;BME280;9626;52.552;13.436;2022-10-31T07:16:01;101463.78;;;13.19;100.00
18985;BME280;9626;52.552;13.436;2022-10-31T07:18:27;101460.94;;;13.30;100.00
18985;BME280;9626;52.552;13.436;2022-10-31T07:20:53;101462.38;;;13.50;100.00
18985;BME280;9626;52.552;13.436;2022-10-31T07:23:18;101467.22;;;13.75;100.00
18985;BME280;9626;52.552;13.436;2022-10-31T07:25:44;101465.88;;;13.96;100.00
18985;BME280;9626;52.552;13.436;2022-10-31T07:28:10;101470.66;;;14.20;100.00
18985;BME280;9626;52.552;13.436;2022-10-31T07:30:36;101465.25;;;14.25;100.00
18985;BME280;9626;52.552;13.436;2022-10-31T07:33:02;101468.03;;;14.19;100.00
18985;BME280;9626;52.552;13.436;2022-10-31T07:35:29;101476.53;;;14.36;100.00
18985;BME280;9626;52.552;13.436;2022-10-31T07:37:55;101465.72;;;14.43;100.00
18985;BME280;9626;52.552;13.436;2022-10-31T07:40:21;101476.97;;;14.56;100.00
18985;BME280;9626;52.552;13.436;2022-10-31T07:42:49;101482.59;;;14.82;100.00
18985;BME280;9626;52.552;13.436;2022-10-31T07:45:19;101483.28;;;14.91;100.00
18985;BME280;9626;52.552;13.436;2022-10-31T07:47:47;101483.78;;;14.69;100.00
18985;BME280;9626;52.552;13.436;2022-10-31T07:50:15;101492.78;;;14.65;100.00
18985;BME280;9626;52.552;13.436;2022-10-31T07:52:42;101481.44;;;14.55;100.00
18985;BME280;9626;52.552;13.436;2022-10-31T07:55:08;101492.25;;;14.47;100.00
18985;BME280;9626;52.552;13.436;2022-10-31T07:57:34;101492.34;;;14.44;100.00
18985;BME280;9626;52.552;13.436;2022-10-31T07:59:59;101500.41;;;14.41;100.00
18985;BME280;9626;52.552;13.436;2022-10-31T08:02:25;101496.97;;;14.36;100.00
18985;BME280;9626;52.552;13.436;2022-10-31T08:04:51;101500.72;;;14.26;100.00
18985;BME280;9626;52.552;13.436;2022-10-31T08:07:16;101505.94;;;14.32;100.00
18985;BME280;9626;52.552;13.436;2022-10-31T08:09:42;101501.59;;;14.28;100.00
18985;BME280;9626;52.552;13.436;2022-10-31T08:12:07;101507.75;;;14.30;100.00
18985;BME280;9626;52.552;13.436;2022-10-31T08:14:33;101513.06;;;14.30;100.00
18985;BME280;9626;52.552;13.436;2022-10-31T08:16:59;101504.19;;;14.31;100.00
18985;BME280;9626;52.552;13.436;2022-10-31T08:19:24;101498.00;;;14.29;100.00
18985;BME280;9626;52.552;13.436;2022-10-31T08:21:53;101504.22;;;14.29;100.00
18985;BME280;9626;52.552;13.436;2022-10-31T08:24:23;101509.59;;;14.28;100.00
18985;BME280;9626;52.552;13.436;2022-10-31T08:26:48;101506.75;;;14.34;100.00
18985;BME280;9626;52.552;13.436;2022-10-31T08:29:14;101511.97;;;14.40;100.00
18985;BME280;9626;52.552;13.436;2022-10-31T08:31:40;101510.84;;;14.50;100.00
18985;BME280;9626;52.552;13.436;2022-10-31T08:34:06;101512.59;;;14.51;100.00
18985;BME280;9626;52.552;13.436;2022-10-31T08:36:32;101525.19;;;14.45;100.00
18985;BME280;9626;52.552;13.436;2022-10-31T08:38:57;101526.06;;;14.44;100.00
18985;BME280;9626;52.552;13.436;2022-10-31T08:41:23;101519.78;;;14.48;100.00
18985;BME280;9626;52.552;13.436;2022-10-31T08:43:48;101515.56;;;14.78;100.00
18985;BME280;9626;52.552;13.436;2022-10-31T08:46:14;101521.09;;;15.05;100.00
18985;BME280;9626;52.552;13.436;2022-10-31T08:48:40;101515.28;;;15.25;100.00
18985;BME280;9626;52.552;13.436;2022-10-31T08:51:06;101509.06;;;15.58;100.00
18985;BME280;9626;52.552;13.436;2022-10-31T08:53:32;101506.09;;;16.01;100.00
18985;BME280;9626;52.552;13.436;2022-10-31T08:55:57;101493.00;;;16.22;100.00
18985;BME280;9626;52.552;13.436;2022-10-31T08:58:24;101492.44;;;16.41;100.00
18985;BME280;9626;52.552;13.436;2022-10-31T09:00:53;101492.41;;;16.99;100.00
18985;BME280;9626;52.552;13.436;2022-10-31T09:03:21;101494.94;;;17.02;100.00
18985;BME280;9626;52.552;13.436;2022-10-31T09:05:47;101502.25;;;17.49;100.00
18985;BME280;9626;52.552;13.436;2022-10-31T09:08:13;101506.88;;;17.69;100.00
18985;BME280;9626;52.552;13.436;2022-10-31T09:10:39;101504.06;;;18.21;100.00
18985;BME280;9626;52.552;13.436;2022-10-31T09:13:08;101515.56;;;18.92;100.00
18985;BME280;9626;52.552;13.436;2022-10-31T09:15:36;101517.53;;;19.09;100.00
18985;BME280;9626;52.552;13.436;2022-10-31T09:18:04;101513.09;;;18.64;100.00
18985;BME280;9626;52.552;13.436;2022-10-31T09:20:31;101521.44;;;18.56;100.00
18985;BME280;9626;52.552;13.436;2022-10-31T09:22:59;101525.78;;;19.05;100.00
18985;BME280;9626;52.552;13.436;2022-10-31T09:25:25;101527.66;;;19.23;100.00
18985;BME280;9626;52.552;13.436;2022-10-31T09:27:50;101524.63;;;18.66;100.00
18985;BME280;9626;52.552;13.436;2022-10-31T09:30:16;101530.25;;;18.14;100.00
18985;BME280;9626;52.552;13.436;2022-10-31T09:32:41;101526.31;;;17.99;100.00
18985;BME280;9626;52.552;13.436;2022-10-31T09:35:07;101528.56;;;17.86;100.00
18985;BME280;9626;52.552;13.436;2022-10-31T09:37:33;101528.69;;;17.83;100.00
18985;BME280;9626;52.552;13.436;2022-10-31T09:39:58;101533.34;;;17.78;100.00
18985;BME280;9626;52.552;13.436;2022-10-31T09:45:25;101535.81;;;17.07;100.00
18985;BME280;9626;52.552;13.436;2022-10-31T09:53:20;101545.69;;;15.85;100.00
18985;BME280;9626;52.552;13.436;2022-10-31T09:55:48;101544.78;;;15.86;100.00
18985;BME280;9626;52.552;13.436;2022-10-31T09:58:20;101555.53;;;16.16;100.00
18985;BME280;9626;52.552;13.436;2022-10-31T10:00:48;101546.94;;;16.93;100.00
18985;BME280;9626;52.552;13.436;2022-10-31T10:03:33;101545.91;;;17.51;100.00
18985;BME280;9626;52.552;13.436;2022-10-31T10:06:18;101544.13;;;17.75;100.00
18985;BME280;9626;52.552;13.436;2022-10-31T10:08:44;101535.91;;;18.52;100.00
18985;BME280;9626;52.552;13.436;2022-10-31T10:11:36;101538.31;;;19.27;100.00
18985;BME280;9626;52.552;13.436;2022-10-31T10:20:01;101531.56;;;19.16;100.00
18985;BME280;9626;52.552;13.436;2022-10-31T10:25:17;101515.47;;;19.16;100.00
18985;BME280;9626;52.552;13.436;2022-10-31T10:28:10;101529.19;;;18.86;100.00
18985;BME280;9626;52.552;13.436;2022-10-31T10:30:43;101527.66;;;18.35;100.00
18985;BME280;9626;52.552;13.436;2022-10-31T10:33:14;101526.84;;;18.09;100.00
18985;BME280;9626;52.552;13.436;2022-10-31T10:35:50;101521.84;;;18.23;100.00
18985;BME280;9626;52.552;13.436;2022-10-31T10:41:18;101513.59;;;18.74;100.00
18985;BME280;9626;52.552;13.436;2022-10-31T10:43:44;101518.59;;;18.83;100.00
18985;BME280;9626;52.552;13.436;2022-10-31T10:51:58;101502.84;;;19.18;100.00
18985;BME280;9626;52.552;13.436;2022-10-31T11:00:03;101509.69;;;19.67;100.00
18985;BME280;9626;52.552;13.436;2022-10-31T11:02:36;101508.09;;;19.42;100.00
18985;BME280;9626;52.552;13.436;2022-10-31T11:05:03;101513.78;;;19.34;100.00
18985;BME280;9626;52.552;13.436;2022-10-31T11:07:39;101511.97;;;19.14;100.00
18985;BME280;9626;52.552;13.436;2022-10-31T11:10:06;101518.66;;;19.04;100.00
18985;BME280;9626;52.552;13.436;2022-10-31T11:12:38;101513.50;;;18.99;100.00
18985;BME280;9626;52.552;13.436;2022-10-31T11:15:20;101503.94;;;19.35;100.00
18985;BME280;9626;52.552;13.436;2022-10-31T11:17:52;101496.53;;;19.81;100.00
18985;BME280;9626;52.552;13.436;2022-10-31T11:22:45;101485.13;;;20.71;97.45
18985;BME280;9626;52.552;13.436;2022-10-31T11:25:23;101489.75;;;21.04;94.39
18985;BME280;9626;52.552;13.436;2022-10-31T11:28:08;101493.94;;;21.63;88.35
18985;BME280;9626;52.552;13.436;2022-10-31T11:30:46;101484.84;;;21.81;83.20
18985;BME280;9626;52.552;13.436;2022-10-31T11:34:01;101480.34;;;20.96;90.12
18985;BME280;9626;52.552;13.436;2022-10-31T11:36:17;101480.72;;;20.13;100.00
18985;BME280;9626;52.552;13.436;2022-10-31T11:38:44;101476.94;;;19.98;100.00
18985;BME280;9626;52.552;13.436;2022-10-31T11:41:14;101480.56;;;19.97;100.00
18985;BME280;9626;52.552;13.436;2022-10-31T11:43:50;101473.22;;;19.82;100.00
18985;BME280;9626;52.552;13.436;2022-10-31T11:46:20;101476.16;;;19.75;100.00
18985;BME280;9626;52.552;13.436;2022-10-31T11:48:48;101482.56;;;19.73;100.00
18985;BME280;9626;52.552;13.436;2022-10-31T11:51:24;101484.16;;;19.77;100.00
18985;BME280;9626;52.552;13.436;2022-10-31T11:53:52;101483.91;;;20.02;100.00
18985;BME280;9626;52.552;13.436;2022-10-31T11:56:18;101481.56;;;19.95;100.00
18985;BME280;9626;52.552;13.436;2022-10-31T11:58:55;101484.09;;;19.79;100.00
18985;BME280;9626;52.552;13.436;2022-10-31T12:01:25;101481.41;;;19.79;100.00
18985;BME280;9626;52.552;13.436;2022-10-31T12:03:58;101488.50;;;19.61;100.00
18985;BME280;9626;52.552;13.436;2022-10-31T12:06:41;101482.22;;;19.60;100.00
18985;BME280;9626;52.552;13.436;2022-10-31T12:09:29;101474.91;;;19.64;100.00
18985;BME280;9626;52.552;13.436;2022-10-31T12:17:21;101474.31;;;19.97;100.00
18985;BME280;9626;52.552;13.436;2022-10-31T12:20:05;101477.78;;;19.99;100.00
18985;BME280;9626;52.552;13.436;2022-10-31T12:22:51;101463.31;;;20.03;100.00
18985;BME280;9626;52.552;13.436;2022-10-31T12:28:30;101461.41;;;20.05;100.00
18985;BME280;9626;52.552;13.436;2022-10-31T12:36:46;101450.13;;;20.16;100.00
18985;BME280;9626;52.552;13.436;2022-10-31T12:45:13;101451.88;;;19.58;100.00
18985;BME280;9626;52.552;13.436;2022-10-31T12:56:31;101441.50;;;19.90;100.00
18985;BME280;9626;52.552;13.436;2022-10-31T12:59:11;101439.66;;;19.90;100.00
18985;BME280;9626;52.552;13.436;2022-10-31T13:01:44;101442.31;;;19.92;100.00
18985;BME280;9626;52.552;13.436;2022-10-31T13:04:21;101438.53;;;19.96;100.00
18985;BME280;9626;52.552;13.436;2022-10-31T13:06:55;101441.91;;;20.00;100.00
18985;BME280;9626;52.552;13.436;2022-10-31T13:09:31;101438.03;;;20.07;100.00
18985;BME280;9626;52.552;13.436;2022-10-31T13:12:03;101435.31;;;20.26;100.00
18985;BME280;9626;52.552;13.436;2022-10-31T13:14:57;101435.97;;;20.12;100.00
18985;BME280;9626;52.552;13.436;2022-10-31T13:17:33;101430.06;;;20.04;100.00
18985;BME280;9626;52.552;13.436;2022-10-31T13:20:18;101431.97;;;20.21;100.00
18985;BME280;9626;52.552;13.436;2022-10-31T13:22:48;101426.38;;;20.06;100.00
18985;BME280;9626;52.552;13.436;2022-10-31T13:25:17;101429.88;;;19.89;100.00
18985;BME280;9626;52.552;13.436;2022-10-31T13:27:58;101431.59;;;20.09;100.00
18985;BME280;9626;52.552;13.436;2022-10-31T13:30:31;101429.69;;;20.31;100.00
18985;BME280;9626;52.552;13.436;2022-10-31T13:33:12;101429.63;;;20.32;100.00
18985;BME280;9626;52.552;13.436;2022-10-31T13:35:41;101425.34;;;20.28;100.00
18985;BME280;9626;52.552;13.436;2022-10-31T13:38:32;101424.75;;;20.21;100.00
18985;BME280;9626;52.552;13.436;2022-10-31T13:41:05;101429.38;;;20.19;100.00
18985;BME280;9626;52.552;13.436;2022-10-31T13:46:40;101417.38;;;20.07;100.00
18985;BME280;9626;52.552;13.436;2022-10-31T13:51:50;101414.97;;;20.01;100.00
18985;BME280;9626;52.552;13.436;2022-10-31T13:54:33;101409.41;;;19.87;100.00
18985;BME280;9626;52.552;13.436;2022-10-31T13:57:00;101405.19;;;19.81;100.00
18985;BME280;9626;52.552;13.436;2022-10-31T13:59:28;101400.13;;;19.73;100.00
18985;BME280;9626;52.552;13.436;2022-10-31T14:01:59;101394.84;;;19.72;100.00
18985;BME280;9626;52.552;13.436;2022-10-31T14:04:44;101399.47;;;19.68;100.00
18985;BME280;9626;52.552;13.436;2022-10-31T14:07:17;101407.03;;;19.79;100.00
18985;BME280;9626;52.552;13.436;2022-10-31T14:14:59;101400.28;;;19.51;100.00
18985;BME280;9626;52.552;13.436;2022-10-31T14:17:30;101392.47;;;19.45;100.00
18985;BME280;9626;52.552;13.436;2022-10-31T14:20:20;101394.50;;;19.40;100.00
18985;BME280;9626;52.552;13.436;2022-10-31T14:22:45;101396.66;;;19.32;100.00